Ab Dinabad, Iran

9:47 PM +0430 on April 26, 2018 (GMT +0430)
Kashan | | Change Station

Elev 3222 ft 33.98 °N, 51.45 °E | Updated 17 minutes ago

Mostly Cloudy
Mostly Cloudy
77 °F
Feels Like 77 °F
N
0
Wind Variable Wind from North

Today
High -- | Low -- °F
--% Chance of Precip.
Yesterday
High -- | Low -- °F
Precip. -- in
Pressure 29.98 in
Visibility 6.2 miles
Clouds Few 4000 ft
Mostly Cloudy 10000 ft
Dew Point 34 °F
Humidity 21%
Rainfall 0.00 in
Snow Depth Not available.
6:20 AM 7:44 PM
Waxing Gibbous, 88% visible
METAR OIFK 261700Z 00000KT 9999 FEW040 BKN100 25/01 Q1015
Pressure 29.98 in
Visibility 6.2 miles
Clouds Few 4000 ft
Mostly Cloudy 10000 ft
Dew Point 34 °F
Humidity 21%
Rainfall 0.00 in
Snow Depth Not available.
6:20 AM 7:44 PM
Waxing Gibbous, 88% visible
METAR OIFK 261700Z 00000KT 9999 FEW040 BKN100 25/01 Q1015

Get Severe Weather Alerts

Thanks for signing up!

Be on the lookout for a verification email in your inbox.

You'll start receiving the daily forecast at 6 AM.

×

10-Day Weather Forecast

No radar image for this location.
×

Almanac

Astronomy

Apr. 26, 2018 Rise Set
Actual Time
Civil Twilight
Nautical Twilight
Astronomical Twilight
Moon
Length of Visible Light
Length of Day
Tomorrow will be .
, % of the Moon is Illuminated

Today's Extremes

Country Highs Country Lows

Community

WunderPhotos

Category 6

Welcome to Category 6. This is the collective home for Weather Underground's featured writeups by Dr. Jeff Masters (right), Bob Henson (left), Chris Burt, and other regular contributors.

Nearby

Air Quality

  Air Quality AQ Index Pollutant
Not available.

Snow Depth

Station Depth Elevation

Earthquake Activity

City Distance Mag. Time & Date
Minimum magnitude displayed is 2.5.

Coastal Water Temperatures

Place Temperature

Stations

Nearby Weather Stations

Station Location Temp. Windchill Dew Point Humidity Wind Precip. Elev Updated Type